createdAt,value
2019-05-17T00:00:57.324Z,96.94
2019-05-17T00:01:57.706Z,96.32
2019-05-17T00:02:57.237Z,96.17
2019-05-17T00:03:57.411Z,95.96
2019-05-17T00:04:58.904Z,96.12
2019-05-17T00:05:59.294Z,96.43
2019-05-17T00:06:59.813Z,96.72
2019-05-17T00:08:00.325Z,97.29
2019-05-17T00:09:00.767Z,97.97
2019-05-17T00:10:01.268Z,97.86
2019-05-17T00:11:01.670Z,97.48
2019-05-17T00:12:02.179Z,97.24
2019-05-17T00:13:02.792Z,97.43
2019-05-17T00:14:03.308Z,97.41
2019-05-17T00:15:03.738Z,97.48
2019-05-17T00:16:04.287Z,97.99
2019-05-17T00:17:06.484Z,98.33
2019-05-17T00:18:03.744Z,98.05
2019-05-17T00:19:07.536Z,97.55
2019-05-17T00:20:06.278Z,98.04
2019-05-17T00:21:07.677Z,97.97
2019-05-17T00:22:07.298Z,97.94
2019-05-17T00:23:07.258Z,97.37
2019-05-17T00:24:06.863Z,97.48
2019-05-17T00:25:07.567Z,97.74
2019-05-17T00:26:07.669Z,97.51
2019-05-17T00:27:09.625Z,98.29
2019-05-17T00:28:09.799Z,98.78
2019-05-17T00:29:10.624Z,98.75
2019-05-17T00:30:11.072Z,98.95
2019-05-17T00:31:11.572Z,97.79
2019-05-17T00:32:12.318Z,96.94
2019-05-17T00:32:20.857Z,96.95
2019-05-17T00:33:22.657Z,96.94
2019-05-17T00:34:23.393Z,97.29
2019-05-17T00:35:26.790Z,98.02
2019-05-17T00:36:24.017Z,98.35
2019-05-17T00:37:26.458Z,98.31
2019-05-17T00:38:27.456Z,98.13
2019-05-17T00:39:28.990Z,99.08
2019-05-17T00:40:27.377Z,98.80
2019-05-17T00:41:27.677Z,98.07
2019-05-17T00:42:28.177Z,97.89
2019-05-17T00:43:28.791Z,98.09
2019-05-17T00:44:29.683Z,98.87
2019-05-17T00:45:30.199Z,98.62
2019-05-17T00:46:30.699Z,98.39
2019-05-17T00:47:31.143Z,98.42
2019-05-17T00:48:31.642Z,98.54
2019-05-17T00:49:32.366Z,98.94
2019-05-17T00:50:32.863Z,99.45
2019-05-17T00:51:33.296Z,98.83
2019-05-17T00:52:33.747Z,99.30
2019-05-17T00:53:36.173Z,99.61
2019-05-17T00:54:33.563Z,98.98
2019-05-17T00:55:36.276Z,98.65
2019-05-17T00:56:34.496Z,98.87
2019-05-17T00:57:36.963Z,99.26
2019-05-17T00:58:37.042Z,98.81
2019-05-17T00:59:36.933Z,98.33
2019-05-17T01:00:37.544Z,97.69
2019-05-17T01:01:37.212Z,97.11
2019-05-17T01:02:38.955Z,97.03
2019-05-17T01:03:39.458Z,97.93
2019-05-17T01:04:40.027Z,98.98
2019-05-17T01:05:40.035Z,98.71
2019-05-17T01:06:40.472Z,99.01
2019-05-17T01:07:40.958Z,99.31
2019-05-17T01:08:41.356Z,99.00
2019-05-17T01:09:41.694Z,98.25
2019-05-17T01:10:42.152Z,98.14
2019-05-17T01:11:42.784Z,97.83
2019-05-17T01:12:43.281Z,97.63
2019-05-17T01:13:44.171Z,97.87
2019-05-17T01:14:46.511Z,97.77
2019-05-17T01:15:44.047Z,98.26
2019-05-17T01:16:47.483Z,98.65
2019-05-17T01:17:47.258Z,97.82
2019-05-17T01:18:47.059Z,97.59
2019-05-17T01:19:47.253Z,97.19
2019-05-17T01:20:47.565Z,96.72
2019-05-17T01:21:47.975Z,96.77
2019-05-17T01:22:49.770Z,96.89
2019-05-17T01:23:50.201Z,97.44
2019-05-17T01:24:50.745Z,97.49
2019-05-17T01:25:51.345Z,97.57
2019-05-17T01:26:51.984Z,97.15
2019-05-17T01:27:00.504Z,96.78
2019-05-17T01:28:02.051Z,96.76
2019-05-17T01:29:02.294Z,97.10
2019-05-17T01:30:02.643Z,97.37
2019-05-17T01:31:03.221Z,97.29
2019-05-17T01:32:06.517Z,97.04
2019-05-17T01:33:03.601Z,97.92
2019-05-17T01:34:07.141Z,97.51
2019-05-17T01:35:07.011Z,97.48
2019-05-17T01:36:06.817Z,97.69
2019-05-17T01:37:06.480Z,97.07
2019-05-17T01:38:07.331Z,97.01
2019-05-17T01:39:15.197Z,97.29
2019-05-17T01:40:07.073Z,97.25
2019-05-17T01:41:07.673Z,97.05
2019-05-17T01:42:09.427Z,97.86
2019-05-17T01:43:09.951Z,97.77
2019-05-17T01:44:10.476Z,97.61
2019-05-17T01:45:11.150Z,97.69
2019-05-17T01:46:11.725Z,97.42
2019-05-17T01:47:12.061Z,96.76
2019-05-17T01:48:12.519Z,97.54
2019-05-17T01:49:13.123Z,97.65
2019-05-17T01:50:13.761Z,97.49
2019-05-17T01:51:16.747Z,97.58
2019-05-17T01:52:13.971Z,97.78
